Terminal Aerodrome Forecast
Issued by NWS Cleveland, OH

Home | Current Version | Previous Version | Graphics & Text | Print | Product List | Glossary On
Versions: 1 2 3 4 5 6 7 8 9 10 11 12 13 14
175
FTUS41 KCLE 220500
TAFTOL
TAF
KTOL 220537Z 2206/2306 25006KT P6SM SCT070 BKN100
     FM221100 30008KT P6SM SCT090
     FM221400 35010KT P6SM FEW040
     FM230000 VRB04KT P6SM SKC=

USA.gov is the U.S. government's official web portal to all federal, state and local government web resources and services.